sensor_id;sensor_type;location;lat;lon;timestamp;P1;durP1;ratioP1;P2;durP2;ratioP2
46230;SDS011;31949;51.404;-0.038;2022-10-17T00:00:54;6.82;;;4.10;;
46230;SDS011;31949;51.404;-0.038;2022-10-17T00:03:21;9.55;;;4.15;;
46230;SDS011;31949;51.404;-0.038;2022-10-17T00:05:48;6.60;;;3.80;;
46230;SDS011;31949;51.404;-0.038;2022-10-17T00:08:16;7.82;;;4.28;;
46230;SDS011;31949;51.404;-0.038;2022-10-17T00:10:44;7.93;;;3.50;;
46230;SDS011;31949;51.404;-0.038;2022-10-17T00:13:20;6.88;;;3.53;;
46230;SDS011;31949;51.404;-0.038;2022-10-17T00:15:47;7.07;;;4.07;;
46230;SDS011;31949;51.404;-0.038;2022-10-17T00:18:14;6.55;;;3.67;;
46230;SDS011;31949;51.404;-0.038;2022-10-17T00:20:42;9.52;;;4.15;;
46230;SDS011;31949;51.404;-0.038;2022-10-17T00:23:09;9.27;;;4.00;;
46230;SDS011;31949;51.404;-0.038;2022-10-17T00:25:36;8.93;;;3.85;;
46230;SDS011;31949;51.404;-0.038;2022-10-17T00:28:03;8.75;;;3.22;;
46230;SDS011;31949;51.404;-0.038;2022-10-17T00:30:30;4.32;;;2.80;;
46230;SDS011;31949;51.404;-0.038;2022-10-17T00:32:58;6.47;;;3.38;;
46230;SDS011;31949;51.404;-0.038;2022-10-17T00:35:25;9.10;;;3.10;;
46230;SDS011;31949;51.404;-0.038;2022-10-17T00:37:52;7.57;;;2.85;;
46230;SDS011;31949;51.404;-0.038;2022-10-17T00:40:21;6.53;;;3.03;;
46230;SDS011;31949;51.404;-0.038;2022-10-17T00:42:48;6.18;;;3.45;;
46230;SDS011;31949;51.404;-0.038;2022-10-17T00:45:27;8.40;;;3.42;;
46230;SDS011;31949;51.404;-0.038;2022-10-17T00:50:30;8.95;;;2.80;;
46230;SDS011;31949;51.404;-0.038;2022-10-17T00:52:59;6.63;;;3.28;;
46230;SDS011;31949;51.404;-0.038;2022-10-17T00:55:29;7.63;;;3.25;;
46230;SDS011;31949;51.404;-0.038;2022-10-17T00:58:01;6.85;;;2.97;;
46230;SDS011;31949;51.404;-0.038;2022-10-17T01:00:30;9.13;;;3.33;;
46230;SDS011;31949;51.404;-0.038;2022-10-17T01:02:58;8.38;;;3.90;;
46230;SDS011;31949;51.404;-0.038;2022-10-17T01:05:25;9.32;;;3.30;;
46230;SDS011;31949;51.404;-0.038;2022-10-17T01:07:53;10.23;;;3.40;;
46230;SDS011;31949;51.404;-0.038;2022-10-17T01:10:21;5.82;;;2.55;;
46230;SDS011;31949;51.404;-0.038;2022-10-17T01:16:03;12.68;;;2.75;;
46230;SDS011;31949;51.404;-0.038;2022-10-17T01:32:48;5.32;;;2.17;;
46230;SDS011;31949;51.404;-0.038;2022-10-17T01:35:25;6.43;;;2.60;;
46230;SDS011;31949;51.404;-0.038;2022-10-17T01:38:09;8.02;;;2.58;;
46230;SDS011;31949;51.404;-0.038;2022-10-17T01:43:25;8.10;;;3.10;;
46230;SDS011;31949;51.404;-0.038;2022-10-17T01:46:01;6.68;;;2.95;;
46230;SDS011;31949;51.404;-0.038;2022-10-17T01:48:47;9.43;;;3.08;;
46230;SDS011;31949;51.404;-0.038;2022-10-17T01:51:20;11.82;;;3.42;;
46230;SDS011;31949;51.404;-0.038;2022-10-17T01:53:53;9.43;;;3.20;;
46230;SDS011;31949;51.404;-0.038;2022-10-17T01:56:38;6.28;;;2.20;;
46230;SDS011;31949;51.404;-0.038;2022-10-17T01:59:12;8.70;;;2.70;;
46230;SDS011;31949;51.404;-0.038;2022-10-17T02:01:45;8.07;;;2.88;;
46230;SDS011;31949;51.404;-0.038;2022-10-17T02:04:15;6.57;;;3.05;;
46230;SDS011;31949;51.404;-0.038;2022-10-17T02:06:43;6.65;;;2.80;;
46230;SDS011;31949;51.404;-0.038;2022-10-17T02:11:48;4.93;;;2.28;;
46230;SDS011;31949;51.404;-0.038;2022-10-17T02:25:28;9.35;;;2.05;;
46230;SDS011;31949;51.404;-0.038;2022-10-17T02:28:08;7.57;;;2.75;;
46230;SDS011;31949;51.404;-0.038;2022-10-17T02:35:43;9.68;;;2.72;;
46230;SDS011;31949;51.404;-0.038;2022-10-17T02:38:14;5.15;;;2.63;;
46230;SDS011;31949;51.404;-0.038;2022-10-17T02:40:42;6.80;;;2.78;;
46230;SDS011;31949;51.404;-0.038;2022-10-17T02:43:11;7.32;;;2.78;;
46230;SDS011;31949;51.404;-0.038;2022-10-17T02:45:40;6.95;;;2.80;;
46230;SDS011;31949;51.404;-0.038;2022-10-17T02:53:49;12.27;;;2.80;;
46230;SDS011;31949;51.404;-0.038;2022-10-17T02:56:41;7.00;;;2.03;;
46230;SDS011;31949;51.404;-0.038;2022-10-17T02:59:14;6.47;;;2.67;;
46230;SDS011;31949;51.404;-0.038;2022-10-17T03:01:45;5.25;;;2.58;;
46230;SDS011;31949;51.404;-0.038;2022-10-17T03:04:13;3.42;;;1.77;;
46230;SDS011;31949;51.404;-0.038;2022-10-17T03:06:41;5.90;;;2.10;;
46230;SDS011;31949;51.404;-0.038;2022-10-17T03:09:09;5.43;;;2.38;;
46230;SDS011;31949;51.404;-0.038;2022-10-17T03:11:36;4.68;;;2.20;;
46230;SDS011;31949;51.404;-0.038;2022-10-17T03:14:05;5.43;;;2.28;;
46230;SDS011;31949;51.404;-0.038;2022-10-17T03:16:33;9.30;;;2.25;;
46230;SDS011;31949;51.404;-0.038;2022-10-17T03:19:00;4.35;;;1.95;;
46230;SDS011;31949;51.404;-0.038;2022-10-17T03:21:27;5.88;;;1.63;;
46230;SDS011;31949;51.404;-0.038;2022-10-17T03:23:55;6.65;;;2.33;;
46230;SDS011;31949;51.404;-0.038;2022-10-17T03:26:22;5.57;;;2.08;;
46230;SDS011;31949;51.404;-0.038;2022-10-17T03:28:49;5.07;;;2.15;;
46230;SDS011;31949;51.404;-0.038;2022-10-17T03:31:20;6.65;;;1.95;;
46230;SDS011;31949;51.404;-0.038;2022-10-17T03:33:49;6.28;;;2.20;;
46230;SDS011;31949;51.404;-0.038;2022-10-17T03:36:17;5.30;;;2.22;;
46230;SDS011;31949;51.404;-0.038;2022-10-17T03:38:45;2.97;;;1.88;;
46230;SDS011;31949;51.404;-0.038;2022-10-17T03:41:15;5.78;;;1.85;;
46230;SDS011;31949;51.404;-0.038;2022-10-17T03:43:42;6.38;;;2.80;;
46230;SDS011;31949;51.404;-0.038;2022-10-17T03:46:09;5.82;;;1.90;;
46230;SDS011;31949;51.404;-0.038;2022-10-17T03:48:36;8.75;;;2.85;;
46230;SDS011;31949;51.404;-0.038;2022-10-17T03:51:05;5.53;;;2.20;;
46230;SDS011;31949;51.404;-0.038;2022-10-17T03:53:43;9.18;;;2.60;;
46230;SDS011;31949;51.404;-0.038;2022-10-17T03:56:15;8.25;;;2.20;;
46230;SDS011;31949;51.404;-0.038;2022-10-17T03:58:52;8.55;;;2.03;;
46230;SDS011;31949;51.404;-0.038;2022-10-17T04:01:21;8.60;;;1.85;;
46230;SDS011;31949;51.404;-0.038;2022-10-17T04:03:49;7.60;;;2.00;;
46230;SDS011;31949;51.404;-0.038;2022-10-17T04:06:18;10.98;;;2.30;;
46230;SDS011;31949;51.404;-0.038;2022-10-17T04:08:46;5.80;;;2.10;;
46230;SDS011;31949;51.404;-0.038;2022-10-17T04:11:20;10.68;;;2.85;;
46230;SDS011;31949;51.404;-0.038;2022-10-17T04:13:52;4.88;;;2.45;;
46230;SDS011;31949;51.404;-0.038;2022-10-17T04:16:21;7.50;;;2.30;;
46230;SDS011;31949;51.404;-0.038;2022-10-17T04:18:57;8.55;;;2.05;;
46230;SDS011;31949;51.404;-0.038;2022-10-17T04:21:28;8.80;;;2.00;;
46230;SDS011;31949;51.404;-0.038;2022-10-17T04:24:00;8.05;;;2.70;;
46230;SDS011;31949;51.404;-0.038;2022-10-17T04:26:57;5.80;;;2.10;;
46230;SDS011;31949;51.404;-0.038;2022-10-17T04:29:27;6.90;;;2.42;;
46230;SDS011;31949;51.404;-0.038;2022-10-17T04:32:04;10.20;;;2.67;;
46230;SDS011;31949;51.404;-0.038;2022-10-17T04:34:46;6.93;;;1.80;;
46230;SDS011;31949;51.404;-0.038;2022-10-17T04:37:16;7.05;;;2.05;;
46230;SDS011;31949;51.404;-0.038;2022-10-17T04:39:45;6.22;;;2.90;;
46230;SDS011;31949;51.404;-0.038;2022-10-17T04:42:12;12.35;;;2.88;;
46230;SDS011;31949;51.404;-0.038;2022-10-17T04:44:39;4.78;;;1.90;;
46230;SDS011;31949;51.404;-0.038;2022-10-17T04:47:07;6.78;;;2.08;;
46230;SDS011;31949;51.404;-0.038;2022-10-17T04:49:34;10.88;;;2.92;;
46230;SDS011;31949;51.404;-0.038;2022-10-17T04:52:08;5.05;;;2.10;;
46230;SDS011;31949;51.404;-0.038;2022-10-17T04:54:41;11.20;;;2.85;;
46230;SDS011;31949;51.404;-0.038;2022-10-17T04:57:11;12.10;;;2.85;;
46230;SDS011;31949;51.404;-0.038;2022-10-17T04:59:40;6.38;;;2.15;;
46230;SDS011;31949;51.404;-0.038;2022-10-17T05:02:17;5.05;;;2.05;;
46230;SDS011;31949;51.404;-0.038;2022-10-17T05:04:45;8.63;;;2.67;;
46230;SDS011;31949;51.404;-0.038;2022-10-17T05:07:13;9.88;;;2.80;;
46230;SDS011;31949;51.404;-0.038;2022-10-17T05:10:16;9.57;;;2.55;;
46230;SDS011;31949;51.404;-0.038;2022-10-17T05:12:46;7.30;;;1.90;;
46230;SDS011;31949;51.404;-0.038;2022-10-17T05:15:15;9.32;;;2.53;;
46230;SDS011;31949;51.404;-0.038;2022-10-17T05:17:42;11.02;;;2.10;;
46230;SDS011;31949;51.404;-0.038;2022-10-17T05:20:10;11.00;;;2.55;;
46230;SDS011;31949;51.404;-0.038;2022-10-17T05:22:38;13.50;;;2.38;;
46230;SDS011;31949;51.404;-0.038;2022-10-17T05:25:08;10.32;;;2.58;;
46230;SDS011;31949;51.404;-0.038;2022-10-17T05:27:36;8.93;;;2.60;;
46230;SDS011;31949;51.404;-0.038;2022-10-17T05:30:04;11.05;;;2.85;;
46230;SDS011;31949;51.404;-0.038;2022-10-17T05:32:34;7.60;;;2.78;;
46230;SDS011;31949;51.404;-0.038;2022-10-17T05:35:01;8.77;;;2.58;;
46230;SDS011;31949;51.404;-0.038;2022-10-17T05:37:31;9.63;;;2.85;;
46230;SDS011;31949;51.404;-0.038;2022-10-17T05:39:59;6.05;;;2.72;;
46230;SDS011;31949;51.404;-0.038;2022-10-17T05:42:27;6.32;;;2.05;;
46230;SDS011;31949;51.404;-0.038;2022-10-17T05:44:56;10.75;;;2.92;;
46230;SDS011;31949;51.404;-0.038;2022-10-17T05:47:24;12.20;;;2.95;;
46230;SDS011;31949;51.404;-0.038;2022-10-17T05:49:52;9.55;;;2.05;;
46230;SDS011;31949;51.404;-0.038;2022-10-17T05:52:25;4.65;;;2.45;;
46230;SDS011;31949;51.404;-0.038;2022-10-17T05:55:09;6.03;;;2.13;;
46230;SDS011;31949;51.404;-0.038;2022-10-17T05:57:37;9.00;;;2.95;;
46230;SDS011;31949;51.404;-0.038;2022-10-17T06:00:09;12.18;;;3.05;;
46230;SDS011;31949;51.404;-0.038;2022-10-17T06:02:47;8.63;;;2.20;;
46230;SDS011;31949;51.404;-0.038;2022-10-17T06:05:16;6.97;;;2.35;;
46230;SDS011;31949;51.404;-0.038;2022-10-17T06:07:45;8.43;;;2.70;;
46230;SDS011;31949;51.404;-0.038;2022-10-17T06:10:12;7.53;;;2.83;;
46230;SDS011;31949;51.404;-0.038;2022-10-17T06:12:42;9.75;;;2.80;;
46230;SDS011;31949;51.404;-0.038;2022-10-17T06:15:10;7.70;;;2.30;;
46230;SDS011;31949;51.404;-0.038;2022-10-17T06:17:41;5.93;;;1.98;;
46230;SDS011;31949;51.404;-0.038;2022-10-17T06:20:08;3.50;;;1.58;;
46230;SDS011;31949;51.404;-0.038;2022-10-17T06:22:36;5.43;;;1.75;;
46230;SDS011;31949;51.404;-0.038;2022-10-17T06:27:35;2.65;;;1.42;;
46230;SDS011;31949;51.404;-0.038;2022-10-17T06:30:03;4.15;;;1.30;;
46230;SDS011;31949;51.404;-0.038;2022-10-17T06:32:30;3.80;;;1.02;;
46230;SDS011;31949;51.404;-0.038;2022-10-17T06:34:58;4.13;;;1.23;;
46230;SDS011;31949;51.404;-0.038;2022-10-17T06:37:29;4.63;;;1.30;;
46230;SDS011;31949;51.404;-0.038;2022-10-17T06:40:04;5.63;;;1.73;;
46230;SDS011;31949;51.404;-0.038;2022-10-17T06:42:35;3.42;;;1.63;;
46230;SDS011;31949;51.404;-0.038;2022-10-17T06:45:22;6.00;;;1.85;;
46230;SDS011;31949;51.404;-0.038;2022-10-17T06:47:55;3.58;;;1.05;;
46230;SDS011;31949;51.404;-0.038;2022-10-17T06:50:38;5.47;;;1.20;;
46230;SDS011;31949;51.404;-0.038;2022-10-17T06:53:12;4.85;;;1.17;;
46230;SDS011;31949;51.404;-0.038;2022-10-17T06:55:50;2.22;;;1.15;;
46230;SDS011;31949;51.404;-0.038;2022-10-17T06:58:51;5.85;;;1.52;;
46230;SDS011;31949;51.404;-0.038;2022-10-17T07:01:27;6.22;;;1.38;;
46230;SDS011;31949;51.404;-0.038;2022-10-17T07:03:58;5.18;;;1.70;;
46230;SDS011;31949;51.404;-0.038;2022-10-17T07:06:27;3.55;;;1.23;;
46230;SDS011;31949;51.404;-0.038;2022-10-17T07:08:55;3.85;;;0.88;;
46230;SDS011;31949;51.404;-0.038;2022-10-17T07:11:23;4.10;;;1.45;;
46230;SDS011;31949;51.404;-0.038;2022-10-17T07:13:51;4.60;;;1.13;;
46230;SDS011;31949;51.404;-0.038;2022-10-17T07:16:20;5.68;;;1.75;;
46230;SDS011;31949;51.404;-0.038;2022-10-17T07:18:54;5.00;;;1.33;;
46230;SDS011;31949;51.404;-0.038;2022-10-17T07:21:22;6.65;;;1.65;;
46230;SDS011;31949;51.404;-0.038;2022-10-17T07:23:50;4.35;;;1.40;;
46230;SDS011;31949;51.404;-0.038;2022-10-17T07:26:18;3.63;;;1.00;;
46230;SDS011;31949;51.404;-0.038;2022-10-17T07:28:49;5.60;;;1.30;;
46230;SDS011;31949;51.404;-0.038;2022-10-17T07:31:28;5.50;;;1.42;;
46230;SDS011;31949;51.404;-0.038;2022-10-17T07:33:57;7.88;;;1.48;;
46230;SDS011;31949;51.404;-0.038;2022-10-17T07:36:26;4.85;;;1.38;;
46230;SDS011;31949;51.404;-0.038;2022-10-17T07:38:54;4.22;;;1.73;;
46230;SDS011;31949;51.404;-0.038;2022-10-17T07:41:23;6.15;;;1.45;;
46230;SDS011;31949;51.404;-0.038;2022-10-17T07:43:50;6.25;;;1.98;;
46230;SDS011;31949;51.404;-0.038;2022-10-17T07:46:21;5.45;;;1.73;;
46230;SDS011;31949;51.404;-0.038;2022-10-17T07:48:48;2.67;;;1.15;;
46230;SDS011;31949;51.404;-0.038;2022-10-17T07:51:18;7.28;;;1.48;;
46230;SDS011;31949;51.404;-0.038;2022-10-17T07:53:47;4.50;;;1.30;;
46230;SDS011;31949;51.404;-0.038;2022-10-17T07:56:14;4.32;;;1.25;;
46230;SDS011;31949;51.404;-0.038;2022-10-17T07:58:42;3.03;;;1.40;;
46230;SDS011;31949;51.404;-0.038;2022-10-17T08:01:09;4.88;;;2.08;;
46230;SDS011;31949;51.404;-0.038;2022-10-17T08:03:45;5.22;;;1.40;;
46230;SDS011;31949;51.404;-0.038;2022-10-17T08:06:16;4.60;;;2.45;;
46230;SDS011;31949;51.404;-0.038;2022-10-17T08:08:43;4.72;;;1.88;;
46230;SDS011;31949;51.404;-0.038;2022-10-17T08:11:11;6.63;;;1.58;;
46230;SDS011;31949;51.404;-0.038;2022-10-17T08:13:40;3.13;;;1.25;;
46230;SDS011;31949;51.404;-0.038;2022-10-17T08:16:08;3.20;;;1.42;;
46230;SDS011;31949;51.404;-0.038;2022-10-17T08:18:38;6.32;;;1.70;;
46230;SDS011;31949;51.404;-0.038;2022-10-17T08:21:06;6.32;;;2.08;;
46230;SDS011;31949;51.404;-0.038;2022-10-17T08:23:35;6.82;;;1.85;;
46230;SDS011;31949;51.404;-0.038;2022-10-17T08:26:04;2.70;;;1.30;;
46230;SDS011;31949;51.404;-0.038;2022-10-17T08:28:34;8.18;;;1.95;;
46230;SDS011;31949;51.404;-0.038;2022-10-17T08:31:05;6.10;;;1.58;;
46230;SDS011;31949;51.404;-0.038;2022-10-17T08:33:37;6.65;;;1.67;;
46230;SDS011;31949;51.404;-0.038;2022-10-17T08:36:05;5.22;;;1.80;;
46230;SDS011;31949;51.404;-0.038;2022-10-17T08:38:34;5.53;;;1.42;;
46230;SDS011;31949;51.404;-0.038;2022-10-17T08:41:12;3.03;;;1.70;;
46230;SDS011;31949;51.404;-0.038;2022-10-17T08:44:11;10.45;;;2.30;;
46230;SDS011;31949;51.404;-0.038;2022-10-17T08:46:41;8.93;;;1.85;;
46230;SDS011;31949;51.404;-0.038;2022-10-17T08:49:15;6.40;;;1.75;;
46230;SDS011;31949;51.404;-0.038;2022-10-17T08:52:00;4.90;;;1.60;;
46230;SDS011;31949;51.404;-0.038;2022-10-17T08:54:39;5.25;;;1.75;;
46230;SDS011;31949;51.404;-0.038;2022-10-17T08:57:10;9.55;;;2.55;;
46230;SDS011;31949;51.404;-0.038;2022-10-17T08:59:39;5.28;;;2.00;;
46230;SDS011;31949;51.404;-0.038;2022-10-17T09:05:07;6.80;;;1.92;;
46230;SDS011;31949;51.404;-0.038;2022-10-17T09:08:01;6.78;;;1.95;;
46230;SDS011;31949;51.404;-0.038;2022-10-17T09:10:54;5.78;;;1.88;;
46230;SDS011;31949;51.404;-0.038;2022-10-17T09:20:41;7.55;;;2.50;;
46230;SDS011;31949;51.404;-0.038;2022-10-17T09:25:31;5.53;;;2.15;;
46230;SDS011;31949;51.404;-0.038;2022-10-17T09:30:46;11.00;;;2.63;;
46230;SDS011;31949;51.404;-0.038;2022-10-17T09:33:36;11.90;;;2.10;;
46230;SDS011;31949;51.404;-0.038;2022-10-17T09:36:32;13.95;;;2.88;;
46230;SDS011;31949;51.404;-0.038;2022-10-17T09:39:11;11.38;;;3.40;;
46230;SDS011;31949;51.404;-0.038;2022-10-17T09:41:43;11.50;;;2.78;;
46230;SDS011;31949;51.404;-0.038;2022-10-17T09:46:58;15.30;;;3.03;;
46230;SDS011;31949;51.404;-0.038;2022-10-17T09:49:35;9.45;;;2.90;;
46230;SDS011;31949;51.404;-0.038;2022-10-17T09:52:05;10.20;;;2.17;;
46230;SDS011;31949;51.404;-0.038;2022-10-17T09:54:47;11.77;;;3.22;;
46230;SDS011;31949;51.404;-0.038;2022-10-17T10:00:27;9.80;;;3.38;;
46230;SDS011;31949;51.404;-0.038;2022-10-17T10:06:34;14.75;;;3.55;;
46230;SDS011;31949;51.404;-0.038;2022-10-17T10:08:52;13.05;;;3.25;;
46230;SDS011;31949;51.404;-0.038;2022-10-17T10:11:24;15.98;;;3.22;;
46230;SDS011;31949;51.404;-0.038;2022-10-17T10:14:10;17.50;;;3.80;;
46230;SDS011;31949;51.404;-0.038;2022-10-17T10:16:44;7.13;;;2.78;;
46230;SDS011;31949;51.404;-0.038;2022-10-17T10:19:29;13.35;;;2.78;;
46230;SDS011;31949;51.404;-0.038;2022-10-17T10:22:19;13.02;;;2.75;;
46230;SDS011;31949;51.404;-0.038;2022-10-17T10:25:11;13.63;;;3.20;;
46230;SDS011;31949;51.404;-0.038;2022-10-17T10:27:45;15.25;;;3.53;;
46230;SDS011;31949;51.404;-0.038;2022-10-17T10:30:16;14.98;;;3.38;;
46230;SDS011;31949;51.404;-0.038;2022-10-17T10:32:54;13.55;;;3.20;;
46230;SDS011;31949;51.404;-0.038;2022-10-17T10:35:27;14.50;;;3.53;;
46230;SDS011;31949;51.404;-0.038;2022-10-17T10:38:01;12.68;;;3.58;;
46230;SDS011;31949;51.404;-0.038;2022-10-17T10:40:43;14.90;;;3.35;;
46230;SDS011;31949;51.404;-0.038;2022-10-17T10:43:23;14.45;;;3.45;;
46230;SDS011;31949;51.404;-0.038;2022-10-17T10:46:01;12.13;;;2.70;;
46230;SDS011;31949;51.404;-0.038;2022-10-17T10:48:35;13.32;;;2.90;;
46230;SDS011;31949;51.404;-0.038;2022-10-17T10:51:11;13.50;;;3.63;;
46230;SDS011;31949;51.404;-0.038;2022-10-17T10:53:54;12.35;;;3.42;;
46230;SDS011;31949;51.404;-0.038;2022-10-17T11:01:38;12.38;;;3.25;;
46230;SDS011;31949;51.404;-0.038;2022-10-17T11:07:28;20.23;;;4.75;;
46230;SDS011;31949;51.404;-0.038;2022-10-17T11:12:49;18.00;;;4.13;;
46230;SDS011;31949;51.404;-0.038;2022-10-17T11:20:45;14.15;;;3.08;;
46230;SDS011;31949;51.404;-0.038;2022-10-17T11:23:32;11.60;;;3.45;;
46230;SDS011;31949;51.404;-0.038;2022-10-17T11:26:22;11.43;;;2.55;;
46230;SDS011;31949;51.404;-0.038;2022-10-17T11:28:55;10.50;;;3.45;;
46230;SDS011;31949;51.404;-0.038;2022-10-17T11:31:25;11.93;;;3.58;;
46230;SDS011;31949;51.404;-0.038;2022-10-17T11:34:02;16.50;;;3.08;;
46230;SDS011;31949;51.404;-0.038;2022-10-17T11:36:37;12.10;;;2.80;;
46230;SDS011;31949;51.404;-0.038;2022-10-17T11:39:20;10.90;;;3.17;;
46230;SDS011;31949;51.404;-0.038;2022-10-17T11:42:02;9.13;;;2.75;;
46230;SDS011;31949;51.404;-0.038;2022-10-17T11:44:38;8.93;;;2.90;;
46230;SDS011;31949;51.404;-0.038;2022-10-17T11:53:22;13.95;;;3.35;;
46230;SDS011;31949;51.404;-0.038;2022-10-17T11:55:53;13.93;;;3.28;;
46230;SDS011;31949;51.404;-0.038;2022-10-17T12:12:01;7.20;;;2.47;;
46230;SDS011;31949;51.404;-0.038;2022-10-17T12:16:59;16.13;;;2.72;;
46230;SDS011;31949;51.404;-0.038;2022-10-17T12:19:32;14.45;;;3.00;;
46230;SDS011;31949;51.404;-0.038;2022-10-17T12:24:57;8.00;;;2.58;;
46230;SDS011;31949;51.404;-0.038;2022-10-17T12:27:45;10.45;;;2.80;;
46230;SDS011;31949;51.404;-0.038;2022-10-17T12:30:17;9.50;;;2.60;;
46230;SDS011;31949;51.404;-0.038;2022-10-17T12:32:54;12.75;;;2.78;;
46230;SDS011;31949;51.404;-0.038;2022-10-17T12:35:48;10.15;;;2.67;;
46230;SDS011;31949;51.404;-0.038;2022-10-17T12:45:45;15.13;;;3.00;;
46230;SDS011;31949;51.404;-0.038;2022-10-17T12:54:01;11.43;;;2.33;;
46230;SDS011;31949;51.404;-0.038;2022-10-17T12:56:41;9.75;;;2.40;;
46230;SDS011;31949;51.404;-0.038;2022-10-17T12:59:14;11.10;;;2.13;;
46230;SDS011;31949;51.404;-0.038;2022-10-17T13:01:48;8.13;;;2.10;;
46230;SDS011;31949;51.404;-0.038;2022-10-17T13:04:21;10.15;;;3.15;;
46230;SDS011;31949;51.404;-0.038;2022-10-17T13:06:53;13.02;;;2.58;;
46230;SDS011;31949;51.404;-0.038;2022-10-17T13:09:26;13.38;;;2.72;;
46230;SDS011;31949;51.404;-0.038;2022-10-17T13:11:56;8.93;;;2.30;;
46230;SDS011;31949;51.404;-0.038;2022-10-17T13:14:26;15.13;;;4.00;;
46230;SDS011;31949;51.404;-0.038;2022-10-17T13:19:27;14.52;;;3.05;;
46230;SDS011;31949;51.404;-0.038;2022-10-17T13:22:01;13.73;;;2.88;;
46230;SDS011;31949;51.404;-0.038;2022-10-17T13:24:33;11.63;;;3.42;;
46230;SDS011;31949;51.404;-0.038;2022-10-17T13:27:03;9.50;;;2.53;;
46230;SDS011;31949;51.404;-0.038;2022-10-17T13:29:32;9.60;;;2.15;;
46230;SDS011;31949;51.404;-0.038;2022-10-17T13:32:02;13.57;;;2.83;;
46230;SDS011;31949;51.404;-0.038;2022-10-17T13:34:31;11.07;;;2.47;;
46230;SDS011;31949;51.404;-0.038;2022-10-17T13:37:00;9.55;;;2.22;;
46230;SDS011;31949;51.404;-0.038;2022-10-17T13:39:33;8.75;;;2.35;;
46230;SDS011;31949;51.404;-0.038;2022-10-17T13:42:27;18.95;;;2.63;;
46230;SDS011;31949;51.404;-0.038;2022-10-17T13:44:56;12.48;;;2.67;;
46230;SDS011;31949;51.404;-0.038;2022-10-17T13:47:26;7.57;;;2.42;;
46230;SDS011;31949;51.404;-0.038;2022-10-17T13:49:57;12.15;;;2.83;;
46230;SDS011;31949;51.404;-0.038;2022-10-17T13:52:25;12.57;;;2.92;;
46230;SDS011;31949;51.404;-0.038;2022-10-17T13:54:55;13.02;;;2.88;;
46230;SDS011;31949;51.404;-0.038;2022-10-17T13:57:43;10.77;;;2.65;;
46230;SDS011;31949;51.404;-0.038;2022-10-17T14:00:15;10.65;;;2.80;;
46230;SDS011;31949;51.404;-0.038;2022-10-17T14:02:45;11.63;;;3.58;;
46230;SDS011;31949;51.404;-0.038;2022-10-17T14:05:15;9.00;;;2.42;;
46230;SDS011;31949;51.404;-0.038;2022-10-17T14:10:35;9.93;;;2.47;;
46230;SDS011;31949;51.404;-0.038;2022-10-17T14:13:05;14.10;;;2.63;;
46230;SDS011;31949;51.404;-0.038;2022-10-17T14:15:41;9.68;;;2.22;;
46230;SDS011;31949;51.404;-0.038;2022-10-17T14:18:19;8.25;;;2.55;;
46230;SDS011;31949;51.404;-0.038;2022-10-17T14:21:01;8.60;;;2.78;;
46230;SDS011;31949;51.404;-0.038;2022-10-17T14:23:51;11.43;;;2.80;;
46230;SDS011;31949;51.404;-0.038;2022-10-17T14:26:45;8.82;;;2.60;;
46230;SDS011;31949;51.404;-0.038;2022-10-17T14:29:19;12.82;;;2.50;;
46230;SDS011;31949;51.404;-0.038;2022-10-17T14:31:49;9.88;;;2.42;;
46230;SDS011;31949;51.404;-0.038;2022-10-17T14:34:41;10.02;;;2.47;;
46230;SDS011;31949;51.404;-0.038;2022-10-17T14:37:33;8.57;;;2.38;;
46230;SDS011;31949;51.404;-0.038;2022-10-17T14:40:00;17.25;;;2.97;;
46230;SDS011;31949;51.404;-0.038;2022-10-17T14:42:30;9.25;;;2.53;;
46230;SDS011;31949;51.404;-0.038;2022-10-17T14:45:03;7.32;;;2.00;;
46230;SDS011;31949;51.404;-0.038;2022-10-17T14:47:33;11.50;;;2.95;;
46230;SDS011;31949;51.404;-0.038;2022-10-17T14:52:36;11.75;;;2.75;;
46230;SDS011;31949;51.404;-0.038;2022-10-17T14:55:26;7.30;;;2.22;;
46230;SDS011;31949;51.404;-0.038;2022-10-17T14:57:53;7.00;;;1.90;;
46230;SDS011;31949;51.404;-0.038;2022-10-17T15:00:21;11.48;;;3.20;;
46230;SDS011;31949;51.404;-0.038;2022-10-17T15:02:50;7.25;;;2.10;;
46230;SDS011;31949;51.404;-0.038;2022-10-17T15:05:18;6.85;;;2.20;;
46230;SDS011;31949;51.404;-0.038;2022-10-17T15:07:46;8.13;;;2.17;;
46230;SDS011;31949;51.404;-0.038;2022-10-17T15:10:22;8.75;;;1.92;;
46230;SDS011;31949;51.404;-0.038;2022-10-17T15:12:53;7.78;;;1.92;;
46230;SDS011;31949;51.404;-0.038;2022-10-17T15:15:30;12.95;;;2.92;;
46230;SDS011;31949;51.404;-0.038;2022-10-17T15:17:58;14.98;;;3.22;;
46230;SDS011;31949;51.404;-0.038;2022-10-17T15:20:26;9.75;;;2.10;;
46230;SDS011;31949;51.404;-0.038;2022-10-17T15:22:56;7.72;;;2.55;;
46230;SDS011;31949;51.404;-0.038;2022-10-17T15:25:25;5.10;;;1.98;;
46230;SDS011;31949;51.404;-0.038;2022-10-17T15:27:53;8.32;;;2.45;;
46230;SDS011;31949;51.404;-0.038;2022-10-17T15:30:22;10.38;;;2.08;;
46230;SDS011;31949;51.404;-0.038;2022-10-17T15:32:49;8.98;;;1.92;;
46230;SDS011;31949;51.404;-0.038;2022-10-17T15:35:17;8.52;;;2.17;;
46230;SDS011;31949;51.404;-0.038;2022-10-17T15:37:45;10.27;;;2.38;;
46230;SDS011;31949;51.404;-0.038;2022-10-17T15:40:14;9.85;;;2.47;;
46230;SDS011;31949;51.404;-0.038;2022-10-17T15:42:43;6.20;;;2.47;;
46230;SDS011;31949;51.404;-0.038;2022-10-17T15:45:11;5.43;;;2.35;;
46230;SDS011;31949;51.404;-0.038;2022-10-17T15:47:43;6.60;;;2.08;;
46230;SDS011;31949;51.404;-0.038;2022-10-17T15:50:16;6.53;;;2.75;;
46230;SDS011;31949;51.404;-0.038;2022-10-17T15:52:43;7.13;;;2.53;;
46230;SDS011;31949;51.404;-0.038;2022-10-17T15:55:12;8.23;;;1.83;;
46230;SDS011;31949;51.404;-0.038;2022-10-17T15:57:40;11.30;;;2.85;;
46230;SDS011;31949;51.404;-0.038;2022-10-17T16:00:13;6.57;;;1.73;;
46230;SDS011;31949;51.404;-0.038;2022-10-17T16:02:48;4.45;;;1.42;;
46230;SDS011;31949;51.404;-0.038;2022-10-17T16:05:17;5.32;;;1.48;;
46230;SDS011;31949;51.404;-0.038;2022-10-17T16:07:49;5.68;;;1.77;;
46230;SDS011;31949;51.404;-0.038;2022-10-17T16:10:16;6.72;;;1.88;;
46230;SDS011;31949;51.404;-0.038;2022-10-17T16:12:44;4.47;;;1.75;;
46230;SDS011;31949;51.404;-0.038;2022-10-17T16:15:22;10.93;;;2.05;;
46230;SDS011;31949;51.404;-0.038;2022-10-17T16:17:51;8.30;;;1.60;;
46230;SDS011;31949;51.404;-0.038;2022-10-17T16:20:19;7.28;;;1.42;;
46230;SDS011;31949;51.404;-0.038;2022-10-17T16:22:47;5.03;;;1.52;;
46230;SDS011;31949;51.404;-0.038;2022-10-17T16:27:46;4.47;;;1.02;;
46230;SDS011;31949;51.404;-0.038;2022-10-17T16:30:14;6.03;;;1.80;;
46230;SDS011;31949;51.404;-0.038;2022-10-17T16:32:42;3.28;;;0.88;;
46230;SDS011;31949;51.404;-0.038;2022-10-17T16:35:15;6.95;;;1.60;;
46230;SDS011;31949;51.404;-0.038;2022-10-17T16:37:49;4.13;;;1.63;;
46230;SDS011;31949;51.404;-0.038;2022-10-17T16:40:16;5.65;;;1.50;;
46230;SDS011;31949;51.404;-0.038;2022-10-17T16:42:44;3.67;;;1.17;;
46230;SDS011;31949;51.404;-0.038;2022-10-17T16:45:21;4.13;;;1.27;;
46230;SDS011;31949;51.404;-0.038;2022-10-17T16:47:49;5.60;;;1.40;;
46230;SDS011;31949;51.404;-0.038;2022-10-17T16:50:16;13.43;;;2.08;;
46230;SDS011;31949;51.404;-0.038;2022-10-17T16:52:43;7.95;;;1.58;;
46230;SDS011;31949;51.404;-0.038;2022-10-17T16:55:11;5.50;;;1.90;;
46230;SDS011;31949;51.404;-0.038;2022-10-17T16:57:38;8.70;;;2.55;;
46230;SDS011;31949;51.404;-0.038;2022-10-17T17:00:05;6.97;;;1.58;;
46230;SDS011;31949;51.404;-0.038;2022-10-17T17:02:33;4.85;;;1.55;;
46230;SDS011;31949;51.404;-0.038;2022-10-17T17:05:00;5.25;;;1.63;;
46230;SDS011;31949;51.404;-0.038;2022-10-17T17:07:27;8.07;;;2.22;;
46230;SDS011;31949;51.404;-0.038;2022-10-17T17:09:55;6.07;;;1.30;;
46230;SDS011;31949;51.404;-0.038;2022-10-17T17:12:22;4.00;;;1.42;;
46230;SDS011;31949;51.404;-0.038;2022-10-17T17:14:50;5.30;;;1.50;;
46230;SDS011;31949;51.404;-0.038;2022-10-17T17:17:17;6.60;;;2.03;;
46230;SDS011;31949;51.404;-0.038;2022-10-17T17:20:02;7.68;;;3.00;;